Terminal Aerodrome Forecast
Issued by NWS Sioux Falls, SD

Home | Current Version | Previous Version | Text Only | Print | Product List | Glossary On
Versions: 1 2 3 4 5 6 7 8 9 10 11 12 13 14 15 16 17 18 19 20 21 22 23 24 25 26
000
FTUS43 KFSD 300530
TAFSUX
TAF
KSUX 300530Z 3006/0106 09004KT P6SM SKC
     FM301000 VRB04KT 6SM BR SKC
      TEMPO 3010/3013 3SM BR SCT003
     FM301500 10008KT P6SM FEW025
     FM302300 09006KT P6SM SKC
     FM010400 08004KT P6SM SCT025=

USA.gov is the U.S. government's official web portal to all federal, state and local government web resources and services.